Time;durP1;ratioP1;P1;durP2;ratioP2;P2;SDS_P1;SDS_P2;PMS_P1;PMS_P2;Temp;Humidity;BMP_temperature;BMP_pressure;BME280_temperature;BME280_humidity;BME280_pressure;Samples;Min_cycle;Max_cycle;Signal;HPM_P1;HPM_P2
2021/11/18 00:01:09;;;;;;;16.00;5.43;;;6.60;98.50;;;;;;5052570;28;20021;-75
2021/11/18 00:03:35;;;;;;;19.00;6.27;;;6.70;98.60;;;;;;5051500;28;20029;-75
2021/11/18 00:06:01;;;;;;;17.10;6.07;;;6.60;98.60;;;;;;5034870;28;20120;-75
2021/11/18 00:08:27;;;;;;;20.47;6.77;;;6.60;98.60;;;;;;5055277;28;20025;-75
2021/11/18 00:11:05;;;;;;;16.93;6.73;;;6.60;98.60;;;;;;5038848;28;20572;-75
2021/11/18 00:13:37;;;;;;;19.63;7.77;;;6.60;98.60;;;;;;5056585;28;20040;-75
2021/11/18 00:16:03;;;;;;;17.20;6.97;;;6.70;98.70;;;;;;5056415;28;20025;-75
2021/11/18 00:18:32;;;;;;;17.80;6.73;;;6.60;98.60;;;;;;5055060;28;20017;-75
2021/11/18 00:21:04;;;;;;;22.90;7.53;;;6.50;98.80;;;;;;5056211;28;20048;-75
2021/11/18 00:23:36;;;;;;;20.77;6.60;;;6.50;98.60;;;;;;5056446;28;20457;-75
2021/11/18 00:26:03;;;;;;;20.37;7.03;;;6.50;98.60;;;;;;5055073;28;20017;-75
2021/11/18 00:28:29;;;;;;;18.63;6.93;;;6.50;98.60;;;;;;5054987;28;20429;-75
2021/11/18 00:30:54;;;;;;;21.33;6.43;;;6.50;98.60;;;;;;5038221;28;20163;-75
2021/11/18 00:33:21;;;;;;;21.33;7.30;;;6.50;98.70;;;;;;5056107;28;20469;-75
2021/11/18 00:35:48;;;;;;;20.63;6.73;;;6.50;98.70;;;;;;5056026;28;20044;-75
2021/11/18 00:38:13;;;;;;;18.07;6.43;;;6.40;98.70;;;;;;5056036;28;20027;-75
2021/11/18 00:40:44;;;;;;;19.57;6.70;;;6.40;98.70;;;;;;5055838;28;20489;-75
2021/11/18 00:43:12;;;;;;;17.73;6.03;;;6.40;98.80;;;;;;5055618;28;20025;-75
2021/11/18 00:45:38;;;;;;;18.87;6.23;;;6.40;98.70;;;;;;5055814;28;20017;-75
2021/11/18 00:48:06;;;;;;;17.90;7.03;;;6.40;98.70;;;;;;5055991;28;20036;-75
2021/11/18 00:50:39;;;;;;;21.10;7.30;;;6.40;98.80;;;;;;5054550;28;20029;-75
2021/11/18 00:53:05;;;;;;;16.87;5.97;;;6.40;98.80;;;;;;5055726;28;20032;-75
2021/11/18 00:55:32;;;;;;;18.60;6.93;;;6.40;98.80;;;;;;5055633;28;20029;-75
2021/11/18 00:57:57;;;;;;;16.40;5.53;;;6.40;98.80;;;;;;5055506;28;20432;-75
2021/11/18 01:00:26;;;;;;;17.03;7.20;;;6.40;98.80;;;;;;5055560;28;20090;-75
2021/11/18 01:02:53;;;;;;;17.40;6.63;;;6.40;98.80;;;;;;5055388;28;20037;-75
2021/11/18 01:05:24;;;;;;;19.77;6.83;;;6.30;98.80;;;;;;5054339;28;20021;-75
2021/11/18 01:07:50;;;;;;;19.60;6.23;;;6.30;98.80;;;;;;5054221;28;20029;-75
2021/11/18 01:10:16;;;;;;;19.93;6.23;;;6.40;98.80;;;;;;5055369;28;20032;-75
2021/11/18 01:12:43;;;;;;;22.27;7.30;;;6.30;98.80;;;;;;5054029;28;20124;-75
2021/11/18 01:15:11;;;;;;;16.83;6.93;;;6.40;98.90;;;;;;5054193;28;20036;-75
2021/11/18 01:17:37;;;;;;;21.03;7.60;;;6.30;98.90;;;;;;5055097;28;20461;-75
2021/11/18 01:20:06;;;;;;;22.43;7.20;;;6.30;98.90;;;;;;5054096;28;20044;-75
2021/11/18 01:22:32;;;;;;;16.40;6.70;;;6.30;98.90;;;;;;5055074;28;20107;-75
2021/11/18 01:24:57;;;;;;;19.33;6.90;;;6.30;98.90;;;;;;5053785;28;20504;-74
2021/11/18 01:27:23;;;;;;;21.47;7.27;;;6.30;99.00;;;;;;5055256;28;20033;-74
2021/11/18 01:29:49;;;;;;;24.87;8.13;;;6.30;99.20;;;;;;5055024;28;20112;-74
2021/11/18 01:32:15;;;;;;;20.30;7.20;;;6.20;99.00;;;;;;5053925;28;20132;-74
2021/11/18 01:34:40;;;;;;;22.90;8.33;;;6.30;99.10;;;;;;5053445;28;20471;-74
2021/11/18 01:37:07;;;;;;;20.17;6.67;;;6.30;99.10;;;;;;5055107;28;20063;-74
2021/11/18 01:39:32;;;;;;;19.27;8.20;;;6.20;99.10;;;;;;5053674;28;20029;-74
2021/11/18 01:41:58;;;;;;;20.03;7.07;;;6.30;99.10;;;;;;5036865;28;20380;-74
2021/11/18 01:44:37;;;;;;;19.90;7.40;;;6.30;99.10;;;;;;5053610;28;20036;-74
2021/11/18 01:47:13;;;;;;;19.93;7.30;;;6.20;99.00;;;;;;5054683;28;20024;-74
2021/11/18 01:49:44;;;;;;;18.67;7.17;;;6.20;99.10;;;;;;5054758;28;20021;-74
2021/11/18 01:52:14;;;;;;;18.23;7.03;;;6.20;99.10;;;;;;5054578;28;20025;-74
2021/11/18 01:54:41;;;;;;;25.57;8.07;;;6.20;99.10;;;;;;5053282;28;20476;-74
2021/11/18 01:57:12;;;;;;;21.80;8.00;;;6.20;99.20;;;;;;5054528;28;20036;-74
2021/11/18 01:59:41;;;;;;;24.27;8.50;;;6.10;99.20;;;;;;5054433;28;20021;-74
2021/11/18 02:02:08;;;;;;;24.03;9.77;;;6.20;99.20;;;;;;5053218;28;20159;-74
2021/11/18 02:04:47;;;;;;;27.10;9.73;;;6.20;99.30;;;;;;5054387;28;20025;-72
2021/11/18 02:07:13;;;;;;;19.80;8.53;;;6.20;99.30;;;;;;5054579;28;20028;-72
2021/11/18 02:09:42;;;;;;;23.00;8.37;;;6.20;99.40;;;;;;5052958;28;20025;-72
2021/11/18 02:12:30;;;;;;;20.40;8.47;;;6.30;99.40;;;;;;5054090;28;20074;-73
2021/11/18 02:14:56;;;;;;;25.60;8.90;;;6.30;99.40;;;;;;5086084;28;20482;-72
2021/11/18 02:17:24;;;;;;;20.80;8.77;;;6.30;99.40;;;;;;5036302;28;20488;-72
2021/11/18 02:20:02;;;;;;;23.03;9.20;;;6.30;99.40;;;;;;5054208;28;20029;-72
2021/11/18 02:22:30;;;;;;;23.67;9.67;;;6.30;99.40;;;;;;5053773;28;20068;-72
2021/11/18 02:25:11;;;;;;;22.57;9.57;;;6.40;99.50;;;;;;5054079;28;20104;-72
2021/11/18 02:27:37;;;;;;;21.80;8.97;;;6.40;99.80;;;;;;5053999;28;20027;-72
2021/11/18 02:30:04;;;;;;;20.63;9.17;;;6.40;99.60;;;;;;5052169;28;20104;-72
2021/11/18 02:32:34;;;;;;;21.23;9.70;;;6.40;99.60;;;;;;5052603;28;20033;-72
2021/11/18 02:35:08;;;;;;;29.07;9.70;;;6.40;99.60;;;;;;5053657;28;20090;-72
2021/11/18 02:37:34;;;;;;;24.17;9.57;;;6.50;99.60;;;;;;5053830;28;20067;-74
2021/11/18 02:40:00;;;;;;;27.17;9.17;;;6.40;99.50;;;;;;5053705;28;20033;-75
2021/11/18 02:42:27;;;;;;;29.20;10.10;;;6.40;99.40;;;;;;5052499;28;20050;-75
2021/11/18 02:44:53;;;;;;;23.03;9.27;;;6.40;99.40;;;;;;5035994;28;20017;-75
2021/11/18 02:47:19;;;;;;;28.50;9.97;;;6.40;99.40;;;;;;5053610;28;20481;-75
2021/11/18 02:49:51;;;;;;;22.33;9.90;;;6.40;99.40;;;;;;5053713;28;20151;-74
2021/11/18 02:52:21;;;;;;;27.30;8.90;;;6.40;99.50;;;;;;5052191;28;20017;-74
2021/11/18 02:54:46;;;;;;;29.67;9.43;;;6.40;99.50;;;;;;5053323;28;20370;-75
2021/11/18 02:57:12;;;;;;;28.93;10.77;;;6.40;99.50;;;;;;5053574;28;20159;-75
2021/11/18 02:59:38;;;;;;;22.87;9.67;;;6.40;99.50;;;;;;5053504;28;20033;-74
2021/11/18 03:02:07;;;;;;;30.83;10.50;;;6.50;99.80;;;;;;5052146;28;20420;-74
2021/11/18 03:04:34;;;;;;;31.20;10.30;;;6.50;99.60;;;;;;5053300;28;20025;-75
2021/11/18 03:07:00;;;;;;;23.80;9.07;;;6.50;99.60;;;;;;5035386;28;20021;-75
2021/11/18 03:09:30;;;;;;;26.87;9.53;;;6.50;99.60;;;;;;5051949;28;20045;-75
2021/11/18 03:11:58;;;;;;;23.93;9.60;;;6.60;99.70;;;;;;5051942;28;20024;-75
2021/11/18 03:14:25;;;;;;;25.43;11.13;;;6.60;99.80;;;;;;5053197;28;20123;-74
2021/11/18 03:16:51;;;;;;;29.00;10.50;;;6.60;99.80;;;;;;5053145;28;20036;-75
2021/11/18 03:19:16;;;;;;;26.17;10.00;;;6.60;99.80;;;;;;5053267;28;20414;-74
2021/11/18 03:21:42;;;;;;;29.67;9.97;;;6.60;99.80;;;;;;5051803;28;20543;-75
2021/11/18 03:24:08;;;;;;;30.27;11.00;;;6.80;99.90;;;;;;5053021;28;20412;-72
2021/11/18 03:26:34;;;;;;;28.87;10.57;;;6.70;99.90;;;;;;5051897;28;20013;-73
2021/11/18 03:29:02;;;;;;;20.13;10.37;;;6.80;99.90;;;;;;5052006;28;20347;-73
2021/11/18 03:31:28;;;;;;;24.97;10.37;;;6.80;99.90;;;;;;5052999;28;20489;-73
2021/11/18 03:33:58;;;;;;;31.70;10.67;;;6.90;99.90;;;;;;5052964;28;20106;-73
2021/11/18 03:36:26;;;;;;;23.90;9.60;;;6.90;99.90;;;;;;5052820;28;20073;-73
2021/11/18 03:38:53;;;;;;;25.37;9.70;;;6.80;99.90;;;;;;5051986;28;20029;-73
2021/11/18 03:41:21;;;;;;;20.63;9.20;;;6.80;99.90;;;;;;5055126;28;20057;-73
2021/11/18 03:43:51;;;;;;;23.50;9.70;;;6.80;99.90;;;;;;5058438;28;20025;-72
2021/11/18 03:46:20;;;;;;;17.20;8.73;;;6.90;99.90;;;;;;5056766;28;20017;-73
2021/11/18 03:48:46;;;;;;;26.27;9.67;;;6.90;99.90;;;;;;5058963;28;20096;-72
2021/11/18 03:51:12;;;;;;;25.97;10.63;;;7.00;99.90;;;;;;5058896;28;20532;-72
2021/11/18 03:53:39;;;;;;;28.97;10.57;;;7.00;99.90;;;;;;5056830;28;20018;-73
2021/11/18 03:56:08;;;;;;;21.40;9.20;;;6.90;99.90;;;;;;5057915;28;20021;-72
2021/11/18 03:58:35;;;;;;;25.47;9.80;;;7.00;99.90;;;;;;5057397;28;20024;-72
2021/11/18 04:01:01;;;;;;;27.20;8.73;;;7.10;99.90;;;;;;5058255;28;20346;-72
2021/11/18 04:03:28;;;;;;;25.10;9.10;;;7.10;99.90;;;;;;5057472;28;20037;-73
2021/11/18 04:05:55;;;;;;;21.77;9.57;;;7.10;99.90;;;;;;5055860;28;20027;-72
2021/11/18 04:08:21;;;;;;;23.23;9.03;;;7.10;99.90;;;;;;5056985;28;20059;-73
2021/11/18 04:10:47;;;;;;;24.77;9.33;;;7.10;99.90;;;;;;5056664;28;20029;-73
2021/11/18 04:13:13;;;;;;;20.00;8.93;;;7.10;99.90;;;;;;5056927;28;20108;-73
2021/11/18 04:15:39;;;;;;;25.33;10.00;;;7.20;99.90;;;;;;5038648;28;20056;-72
2021/11/18 04:18:05;;;;;;;20.10;9.03;;;7.20;99.90;;;;;;5056349;28;20025;-72
2021/11/18 04:20:32;;;;;;;26.67;9.37;;;7.20;99.90;;;;;;5055057;28;20127;-73
2021/11/18 04:22:58;;;;;;;26.03;8.93;;;7.20;99.90;;;;;;5054985;28;20500;-73
2021/11/18 04:25:28;;;;;;;20.57;8.60;;;7.30;99.90;;;;;;5056329;28;20029;-73
2021/11/18 04:27:54;;;;;;;27.57;9.63;;;7.30;99.90;;;;;;5055011;28;20021;-72
2021/11/18 04:30:24;;;;;;;25.37;8.97;;;7.30;99.90;;;;;;5054947;28;20021;-73
2021/11/18 04:32:49;;;;;;;33.40;11.40;;;7.40;99.90;;;;;;5054808;28;20423;-73
2021/11/18 04:35:16;;;;;;;26.73;10.10;;;7.30;99.90;;;;;;5054787;28;20049;-73
2021/11/18 04:37:42;;;;;;;29.13;10.07;;;7.30;99.90;;;;;;5038310;28;20420;-73
2021/11/18 04:40:09;;;;;;;30.07;10.07;;;7.40;99.90;;;;;;5055978;28;20037;-74
2021/11/18 04:42:35;;;;;;;31.63;10.23;;;7.40;99.90;;;;;;5054601;28;20029;-73
2021/11/18 04:45:01;;;;;;;23.27;9.20;;;7.40;99.90;;;;;;5055814;28;20029;-73
2021/11/18 04:47:26;;;;;;;20.90;8.70;;;7.40;99.90;;;;;;5055794;28;20486;-73
2021/11/18 04:49:52;;;;;;;25.87;9.47;;;7.40;99.90;;;;;;5054666;28;20040;-73
2021/11/18 04:52:18;;;;;;;25.77;9.40;;;7.40;99.90;;;;;;5054012;28;20025;-73
2021/11/18 04:54:45;;;;;;;24.23;9.10;;;7.40;99.90;;;;;;5055805;28;20033;-72
2021/11/18 04:57:11;;;;;;;18.63;9.17;;;7.40;99.90;;;;;;5055664;28;20017;-73
2021/11/18 04:59:37;;;;;;;23.70;9.63;;;7.50;99.90;;;;;;5055454;28;20043;-72
2021/11/18 05:02:03;;;;;;;32.87;9.73;;;7.50;99.90;;;;;;5055642;28;20033;-75
2021/11/18 05:04:29;;;;;;;27.60;9.90;;;7.50;99.90;;;;;;5055543;28;20470;-75
2021/11/18 05:06:54;;;;;;;27.63;9.73;;;7.50;99.90;;;;;;5055477;28;20036;-73
2021/11/18 05:09:20;;;;;;;30.27;11.07;;;7.50;99.90;;;;;;5037483;28;20017;-73
2021/11/18 05:11:46;;;;;;;28.77;11.60;;;7.50;99.90;;;;;;5054272;28;20381;-76
2021/11/18 05:14:12;;;;;;;30.97;10.87;;;7.50;99.90;;;;;;5037407;28;20041;-76
2021/11/18 05:16:38;;;;;;;27.90;10.50;;;7.60;99.90;;;;;;5052087;28;20091;-74
2021/11/18 05:19:05;;;;;;;26.00;11.00;;;7.50;99.80;;;;;;5054489;28;20032;-75
2021/11/18 05:21:31;;;;;;;32.90;11.43;;;7.50;99.80;;;;;;5053446;28;20040;-75
2021/11/18 05:24:00;;;;;;;27.30;11.40;;;7.50;99.80;;;;;;5054253;28;20481;-75
2021/11/18 05:26:27;;;;;;;27.83;9.67;;;7.50;99.80;;;;;;5055086;28;20021;-75
2021/11/18 05:28:53;;;;;;;22.10;9.53;;;7.50;99.80;;;;;;5054966;28;20021;-74
2021/11/18 05:31:21;;;;;;;36.97;12.07;;;7.60;99.80;;;;;;5054181;28;20109;-76
2021/11/18 05:33:49;;;;;;;33.20;13.00;;;7.50;99.80;;;;;;5054950;28;20021;-74
2021/11/18 05:36:16;;;;;;;32.17;10.70;;;7.50;99.70;;;;;;5053506;28;20517;-75
2021/11/18 05:38:41;;;;;;;24.13;11.30;;;7.50;99.70;;;;;;5055008;28;20059;-75
2021/11/18 05:41:07;;;;;;;27.20;11.60;;;7.60;99.70;;;;;;5054916;28;20052;-75
2021/11/18 05:43:35;;;;;;;28.77;11.67;;;7.40;99.70;;;;;;5054634;28;20108;-75
2021/11/18 05:46:02;;;;;;;31.57;12.07;;;7.60;99.80;;;;;;5054786;28;20391;-75
2021/11/18 05:48:28;;;;;;;28.50;11.33;;;7.60;99.80;;;;;;5087044;28;20109;-75
2021/11/18 05:50:57;;;;;;;26.27;10.73;;;7.60;99.80;;;;;;5054924;28;20442;-75
2021/11/18 05:53:29;;;;;;;29.13;10.50;;;7.60;99.80;;;;;;5053242;28;20032;-75
2021/11/18 05:55:56;;;;;;;32.37;11.20;;;7.70;99.80;;;;;;5053212;28;20028;-75
2021/11/18 05:58:22;;;;;;;32.77;13.50;;;7.70;99.80;;;;;;5054476;28;20025;-75
2021/11/18 06:00:48;;;;;;;32.60;11.83;;;7.70;99.70;;;;;;5054364;28;20067;-75
2021/11/18 06:03:14;;;;;;;31.13;12.33;;;7.70;99.70;;;;;;5054406;28;20516;-75
2021/11/18 06:05:40;;;;;;;30.23;12.93;;;7.60;99.70;;;;;;5068725;28;20021;-75
2021/11/18 06:08:06;;;;;;;29.63;11.63;;;7.70;99.70;;;;;;5054400;28;20040;-75
2021/11/18 06:10:33;;;;;;;31.87;13.43;;;7.70;99.70;;;;;;5052884;28;20481;-75
2021/11/18 06:13:00;;;;;;;30.20;11.77;;;7.60;99.70;;;;;;5054211;28;20025;-75
2021/11/18 06:15:27;;;;;;;32.30;12.50;;;7.70;99.80;;;;;;5054117;28;20382;-75
2021/11/18 06:17:53;;;;;;;37.23;12.03;;;7.70;99.80;;;;;;5052707;28;20025;-75
2021/11/18 06:20:20;;;;;;;33.87;13.43;;;7.70;99.70;;;;;;5052744;28;20021;-75
2021/11/18 06:22:47;;;;;;;30.37;13.60;;;7.70;99.70;;;;;;5053900;28;20381;-75
2021/11/18 06:25:17;;;;;;;42.73;13.87;;;7.70;99.70;;;;;;5053897;28;20031;-75
2021/11/18 06:27:45;;;;;;;39.80;13.83;;;7.70;99.70;;;;;;5053641;28;20088;-75
2021/11/18 06:30:26;;;;;;;34.57;13.43;;;7.70;99.70;;;;;;5053519;28;20104;-75
2021/11/18 06:32:53;;;;;;;35.40;12.57;;;7.70;99.70;;;;;;5053689;28;20060;-75
2021/11/18 06:35:19;;;;;;;39.27;12.90;;;7.70;99.70;;;;;;5068583;28;20048;-75
2021/11/18 06:37:49;;;;;;;33.00;12.60;;;7.80;99.70;;;;;;5053082;28;20043;-75
2021/11/18 06:40:20;;;;;;;34.57;11.43;;;7.70;99.70;;;;;;5043469;28;20029;-76
2021/11/18 06:42:47;;;;;;;31.87;12.57;;;7.80;99.70;;;;;;5031588;28;20032;-75
2021/11/18 06:45:15;;;;;;;40.07;13.57;;;7.80;99.70;;;;;;5042879;28;20053;-75
2021/11/18 06:47:41;;;;;;;35.10;12.20;;;7.80;99.70;;;;;;5044954;28;20466;-76
2021/11/18 06:50:08;;;;;;;34.47;12.77;;;7.80;99.70;;;;;;5025922;28;20056;-75
2021/11/18 06:52:33;;;;;;;35.30;12.40;;;7.80;99.70;;;;;;5042989;28;20028;-75
2021/11/18 06:54:59;;;;;;;36.83;12.77;;;7.80;99.70;;;;;;5044779;28;20362;-75
2021/11/18 06:57:25;;;;;;;36.80;12.40;;;7.80;99.70;;;;;;5047641;28;20064;-75
2021/11/18 06:59:51;;;;;;;38.27;13.17;;;7.80;99.70;;;;;;5048523;28;20108;-74
2021/11/18 07:02:18;;;;;;;32.80;11.73;;;7.70;99.70;;;;;;5048729;28;20024;-75
2021/11/18 07:04:45;;;;;;;36.00;12.27;;;7.80;99.60;;;;;;5050623;28;20127;-75
2021/11/18 07:07:11;;;;;;;37.33;11.63;;;7.80;99.60;;;;;;5047143;28;20478;-74
2021/11/18 07:09:37;;;;;;;32.90;12.13;;;7.90;99.60;;;;;;5034693;28;20066;-74
2021/11/18 07:12:09;;;;;;;33.10;12.40;;;7.80;99.60;;;;;;5046402;28;20207;-75
2021/11/18 07:14:36;;;;;;;36.67;11.97;;;7.80;99.50;;;;;;5049800;28;20492;-75
2021/11/18 07:17:04;;;;;;;51.03;12.83;;;7.90;99.60;;;;;;5048662;28;20035;-73
2021/11/18 07:19:30;;;;;;;35.20;10.70;;;7.80;99.60;;;;;;5048862;28;20013;-74
2021/11/18 07:21:56;;;;;;;33.50;11.77;;;7.90;99.60;;;;;;5051722;28;20124;-73
2021/11/18 07:24:22;;;;;;;37.83;12.83;;;7.80;99.60;;;;;;5050008;28;20100;-73
2021/11/18 07:26:47;;;;;;;33.43;12.30;;;7.80;99.80;;;;;;5051571;28;20378;-73
2021/11/18 07:29:13;;;;;;;37.97;12.80;;;7.80;99.60;;;;;;5052739;28;20025;-73
2021/11/18 07:31:39;;;;;;;35.23;12.27;;;7.80;99.60;;;;;;5051428;28;20036;-73
2021/11/18 07:34:05;;;;;;;31.77;11.93;;;7.90;99.60;;;;;;5051415;28;20043;-73
2021/11/18 07:36:31;;;;;;;37.23;12.57;;;7.80;99.60;;;;;;5051358;28;20049;-72
2021/11/18 07:38:57;;;;;;;34.27;13.40;;;7.90;99.60;;;;;;5051518;28;20481;-72
2021/11/18 07:41:23;;;;;;;36.50;11.63;;;7.80;99.60;;;;;;5052648;28;20448;-72
2021/11/18 07:43:48;;;;;;;34.30;12.33;;;7.90;99.60;;;;;;5068207;28;20021;-72
2021/11/18 07:46:16;;;;;;;44.70;13.17;;;7.90;99.50;;;;;;5052764;28;20028;-72
2021/11/18 07:48:43;;;;;;;39.30;13.80;;;7.80;99.50;;;;;;5034868;28;20108;-73
2021/11/18 07:51:11;;;;;;;36.17;12.20;;;7.90;99.50;;;;;;5034532;28;20056;-73
2021/11/18 07:53:38;;;;;;;36.60;12.67;;;7.90;99.50;;;;;;5050924;28;20029;-73
2021/11/18 07:56:04;;;;;;;40.87;12.73;;;7.80;99.50;;;;;;5052781;28;20037;-73
2021/11/18 07:58:29;;;;;;;43.17;14.17;;;7.80;99.50;;;;;;5051391;28;20032;-73
2021/11/18 08:00:56;;;;;;;41.83;14.00;;;7.80;99.50;;;;;;5051231;28;20029;-73
2021/11/18 08:03:22;;;;;;;35.07;13.43;;;7.80;99.50;;;;;;5051857;28;20381;-73
2021/11/18 08:05:49;;;;;;;35.67;12.50;;;7.90;99.80;;;;;;5051129;28;20029;-73
2021/11/18 08:08:14;;;;;;;38.33;12.97;;;7.80;99.50;;;;;;5052700;28;20029;-73
2021/11/18 08:10:40;;;;;;;42.87;15.30;;;7.90;99.50;;;;;;5052652;28;20028;-73
2021/11/18 08:13:06;;;;;;;41.67;15.07;;;7.90;99.60;;;;;;5051410;28;20029;-73
2021/11/18 08:15:32;;;;;;;40.03;14.50;;;7.90;99.60;;;;;;5052560;28;20064;-73
2021/11/18 08:17:58;;;;;;;41.07;15.10;;;7.90;99.60;;;;;;5051405;28;20065;-73
2021/11/18 08:20:24;;;;;;;33.53;14.17;;;8.00;99.70;;;;;;5052349;28;20056;-73
2021/11/18 08:22:51;;;;;;;45.33;15.27;;;8.10;99.70;;;;;;5034595;28;20036;-73
2021/11/18 08:25:20;;;;;;;48.70;18.07;;;8.00;99.60;;;;;;5052270;28;20056;-73
2021/11/18 08:27:45;;;;;;;45.27;16.27;;;8.10;99.60;;;;;;5053431;28;20053;-72
2021/11/18 08:30:15;;;;;;;39.70;16.40;;;8.10;99.60;;;;;;5056069;28;20061;-73
2021/11/18 08:32:43;;;;;;;42.60;15.67;;;8.20;99.60;;;;;;5055226;28;20025;-72
2021/11/18 08:35:10;;;;;;;37.67;14.70;;;8.10;99.50;;;;;;5055161;28;20025;-74
2021/11/18 08:37:35;;;;;;;39.77;13.73;;;8.20;99.60;;;;;;5054302;28;20025;-75
2021/11/18 08:40:02;;;;;;;36.30;16.60;;;8.20;99.50;;;;;;5054301;28;20032;-75
2021/11/18 08:42:28;;;;;;;45.00;15.40;;;8.20;99.50;;;;;;5055517;28;20393;-75
2021/11/18 08:44:54;;;;;;;39.17;14.07;;;8.20;99.60;;;;;;5054951;28;20029;-75
2021/11/18 08:47:22;;;;;;;32.27;13.53;;;8.30;99.60;;;;;;5054515;28;20028;-75
2021/11/18 08:49:48;;;;;;;43.60;14.17;;;8.30;99.60;;;;;;5055865;28;20017;-75
2021/11/18 08:52:20;;;;;;;33.53;14.63;;;8.40;99.60;;;;;;5055706;28;20043;-75
2021/11/18 08:54:48;;;;;;;37.07;14.43;;;8.40;99.60;;;;;;5055342;28;20127;-75
2021/11/18 08:57:14;;;;;;;36.80;13.77;;;8.40;99.50;;;;;;5054118;28;20473;-75
2021/11/18 08:59:40;;;;;;;46.60;14.67;;;8.50;99.50;;;;;;5055023;28;20032;-75
2021/11/18 09:02:10;;;;;;;36.47;14.93;;;8.50;99.40;;;;;;5036938;28;20032;-76
2021/11/18 09:04:36;;;;;;;41.67;16.67;;;8.60;99.50;;;;;;5054521;28;20017;-75
2021/11/18 09:07:01;;;;;;;36.13;14.23;;;8.50;99.40;;;;;;5055397;28;20141;-75
2021/11/18 09:09:28;;;;;;;41.10;15.10;;;8.70;99.40;;;;;;5055397;28;20040;-75
2021/11/18 09:11:56;;;;;;;41.60;13.80;;;8.70;99.40;;;;;;5055008;28;20032;-75
2021/11/18 09:14:23;;;;;;;42.30;14.43;;;8.80;99.40;;;;;;5054826;28;20032;-75
2021/11/18 09:16:51;;;;;;;34.67;14.13;;;8.80;99.30;;;;;;5054845;28;20024;-75
2021/11/18 09:19:21;;;;;;;44.53;12.97;;;8.90;99.40;;;;;;5054747;28;20426;-75
2021/11/18 09:21:48;;;;;;;38.37;13.80;;;9.00;99.40;;;;;;5054673;28;20115;-75
2021/11/18 09:24:22;;;;;;;43.83;13.87;;;9.20;99.50;;;;;;5054697;28;20018;-75
2021/11/18 09:26:55;;;;;;;34.20;12.33;;;9.40;99.60;;;;;;5053300;28;20017;-75
2021/11/18 09:29:22;;;;;;;37.10;13.73;;;9.60;99.70;;;;;;5055189;28;20029;-75
2021/11/18 09:31:48;;;;;;;33.90;11.60;;;9.90;99.60;;;;;;5055956;28;20036;-76
2021/11/18 09:34:14;;;;;;;34.08;12.35;;;10.30;99.60;;;;;;5054533;28;20025;-75
2021/11/18 09:36:39;;;;;;;36.35;11.63;;;10.70;99.50;;;;;;5053129;28;20520;-75
2021/11/18 09:39:07;;;;;;;26.98;10.35;;;11.10;99.20;;;;;;5054747;28;20033;-75
2021/11/18 09:41:46;;;;;;;36.72;11.50;;;11.60;99.20;;;;;;5054357;28;20051;-76
2021/11/18 09:44:17;;;;;;;26.92;10.20;;;11.90;98.30;;;;;;5054672;28;20048;-75
2021/11/18 09:47:21;;;;;;;24.15;8.50;;;12.30;98.20;;;;;;5053470;28;20108;-75
2021/11/18 09:50:24;;;;;;;24.30;8.40;;;12.70;97.90;;;;;;5053185;28;20502;-75
2021/11/18 09:53:08;;;;;;;30.40;9.88;;;13.20;97.20;;;;;;5053037;28;20073;-75
2021/11/18 09:55:43;;;;;;;24.30;9.02;;;13.70;97.00;;;;;;5054160;28;20497;-76
2021/11/18 09:59:00;;;;;;;23.02;8.85;;;14.20;95.40;;;;;;5053184;28;20025;-73
2021/11/18 10:01:44;;;;;;;22.52;8.70;;;14.60;94.30;;;;;;5041588;28;20025;-73
2021/11/18 10:04:27;;;;;;;28.45;8.25;;;15.00;93.90;;;;;;5053060;28;20029;-74
2021/11/18 10:07:01;;;;;;;20.73;8.45;;;15.50;93.30;;;;;;5033054;28;20156;-73
2021/11/18 10:09:32;;;;;;;22.92;8.40;;;15.90;91.80;;;;;;5033142;28;20469;-73
2021/11/18 10:12:06;;;;;;;22.50;7.85;;;16.20;91.00;;;;;;5035710;28;20569;-74
2021/11/18 10:14:55;;;;;;;23.65;8.88;;;16.50;90.00;;;;;;5054237;28;20163;-74
2021/11/18 10:17:30;;;;;;;21.90;7.60;;;16.70;86.00;;;;;;5052090;28;20106;-73
2021/11/18 10:20:23;;;;;;;22.40;7.82;;;16.40;82.70;;;;;;5053350;28;20032;-74
2021/11/18 10:23:11;;;;;;;20.97;7.80;;;16.10;80.60;;;;;;5054037;28;20477;-74
2021/11/18 10:25:41;;;;;;;22.60;8.23;;;16.20;80.30;;;;;;5053891;28;20056;-74
2021/11/18 10:28:19;;;;;;;20.50;7.95;;;16.40;80.00;;;;;;5053641;28;20040;-73
2021/11/18 10:31:16;;;;;;;18.17;7.10;;;16.60;78.80;;;;;;5054032;28;20036;-75
2021/11/18 10:33:48;;;;;;;21.15;6.75;;;16.70;76.30;;;;;;5049316;28;20041;-74
2021/11/18 10:36:32;;;;;;;21.17;7.80;;;16.70;75.30;;;;;;5053609;28;20041;-74
2021/11/18 10:39:06;;;;;;;21.05;7.53;;;16.80;75.80;;;;;;5052459;28;20025;-74
2021/11/18 10:41:33;;;;;;;20.67;7.25;;;17.00;74.30;;;;;;5053603;28;20032;-73
2021/11/18 10:44:14;;;;;;;21.13;7.55;;;17.10;73.10;;;;;;5054043;28;20029;-74
2021/11/18 10:47:06;;;;;;;20.50;7.15;;;17.20;71.70;;;;;;5053687;28;20025;-73
2021/11/18 10:49:34;;;;;;;23.80;7.38;;;17.30;72.50;;;;;;5052866;28;20021;-74
2021/11/18 10:52:03;;;;;;;19.70;7.50;;;17.50;72.60;;;;;;5053216;28;20096;-74
2021/11/18 10:55:00;;;;;;;21.45;7.97;;;17.60;70.40;;;;;;5053611;28;20025;-74
2021/11/18 10:57:28;;;;;;;22.33;8.10;;;17.70;69.60;;;;;;5045645;28;20061;-75
2021/11/18 11:00:29;;;;;;;23.73;8.10;;;17.80;68.60;;;;;;5051473;28;20124;-74
2021/11/18 11:02:55;;;;;;;22.13;7.35;;;17.90;67.50;;;;;;5039472;28;20029;-74
2021/11/18 11:05:36;;;;;;;24.48;8.20;;;17.70;67.00;;;;;;5052963;28;20028;-74
2021/11/18 11:08:20;;;;;;;21.00;6.82;;;17.70;65.90;;;;;;5051046;28;20017;-74
2021/11/18 11:10:50;;;;;;;21.35;7.47;;;17.60;66.20;;;;;;5051712;28;20017;-73
2021/11/18 11:13:44;;;;;;;21.52;7.10;;;17.60;66.30;;;;;;5053067;28;20535;-74
2021/11/18 11:16:46;;;;;;;18.70;6.53;;;17.70;66.60;;;;;;5037183;28;20044;-74
2021/11/18 11:19:36;;;;;;;23.75;7.22;;;17.80;67.10;;;;;;5029169;28;20044;-74
2021/11/18 11:22:25;;;;;;;24.23;7.35;;;17.80;65.70;;;;;;5052589;28;20167;-73
2021/11/18 11:25:06;;;;;;;24.17;7.25;;;17.80;64.90;;;;;;5054227;28;20017;-73
2021/11/18 11:28:22;;;;;;;25.35;7.22;;;17.80;65.40;;;;;;5054006;28;20025;-73
2021/11/18 11:31:12;;;;;;;24.58;7.72;;;17.90;64.70;;;;;;5039912;28;20041;-74
2021/11/18 11:33:46;;;;;;;21.95;6.90;;;17.90;64.90;;;;;;5051994;28;20086;-75
2021/11/18 11:36:46;;;;;;;20.15;6.00;;;17.90;65.20;;;;;;5053143;28;20460;-76
2021/11/18 11:39:26;;;;;;;18.85;6.15;;;18.00;64.80;;;;;;5034628;28;20052;-75
2021/11/18 11:42:11;;;;;;;23.88;6.82;;;17.80;63.50;;;;;;5051663;28;20086;-76
2021/11/18 11:44:52;;;;;;;19.23;5.75;;;17.60;63.40;;;;;;5035242;28;20033;-76
2021/11/18 11:47:51;;;;;;;16.80;5.18;;;17.60;63.80;;;;;;5051317;28;20021;-76
2021/11/18 11:50:38;;;;;;;16.42;4.72;;;17.60;63.70;;;;;;5051146;28;20098;-76
2021/11/18 11:53:13;;;;;;;15.80;4.55;;;17.60;63.60;;;;;;5050814;28;20025;-76
2021/11/18 11:55:57;;;;;;;19.08;5.18;;;17.60;63.50;;;;;;5052657;28;20021;-75
2021/11/18 11:58:33;;;;;;;19.92;5.22;;;17.90;63.40;;;;;;5051804;28;20051;-75
2021/11/18 12:01:12;;;;;;;20.40;5.53;;;18.10;63.10;;;;;;5051112;28;20025;-76
2021/11/18 12:03:49;;;;;;;21.63;6.43;;;18.30;62.30;;;;;;5052275;28;20040;-76
2021/11/18 12:06:38;;;;;;;17.05;5.05;;;18.60;61.70;;;;;;5054791;28;20021;-76
2021/11/18 12:09:10;;;;;;;16.02;4.15;;;18.70;61.20;;;;;;5055983;28;20021;-76
2021/11/18 12:11:51;;;;;;;22.80;4.72;;;18.90;60.70;;;;;;5056106;28;20028;-76
2021/11/18 12:14:25;;;;;;;23.70;6.45;;;19.10;59.60;;;;;;5054626;28;20064;-77
2021/11/18 12:17:00;;;;;;;21.42;5.72;;;19.10;58.70;;;;;;5053578;28;20021;-76
2021/11/18 12:19:34;;;;;;;22.08;6.05;;;19.10;58.90;;;;;;5055444;28;20021;-76
2021/11/18 12:22:38;;;;;;;14.95;5.15;;;19.20;58.30;;;;;;5055346;28;20025;-75
2021/11/18 12:25:29;;;;;;;20.70;5.73;;;19.20;57.90;;;;;;5055779;28;20024;-76
2021/11/18 12:28:13;;;;;;;20.00;5.80;;;19.10;57.50;;;;;;5055638;28;20017;-76
2021/11/18 12:30:53;;;;;;;15.25;4.78;;;19.20;58.00;;;;;;5055689;28;20048;-77
2021/11/18 12:33:19;;;;;;;21.17;4.93;;;19.10;57.70;;;;;;5055571;28;20171;-77
2021/11/18 12:36:27;;;;;;;17.13;5.50;;;19.30;57.60;;;;;;5054319;28;20128;-77
2021/11/18 12:38:56;;;;;;;13.93;4.18;;;19.40;57.40;;;;;;5037144;28;20020;-77
2021/11/18 12:41:39;;;;;;;19.05;5.45;;;19.60;57.40;;;;;;5052887;28;20461;-76
2021/11/18 12:44:20;;;;;;;19.67;5.63;;;19.90;56.90;;;;;;5035872;28;20493;-76
2021/11/18 12:47:03;;;;;;;19.25;6.28;;;20.00;55.90;;;;;;5053000;28;20035;-76
2021/11/18 12:49:44;;;;;;;15.90;5.78;;;19.90;55.70;;;;;;5054368;28;20488;-77
2021/11/18 12:52:15;;;;;;;21.95;6.22;;;20.10;55.50;;;;;;5048954;28;20529;-77
2021/11/18 12:55:16;;;;;;;18.30;5.75;;;20.10;55.40;;;;;;5050715;28;20378;-75
2021/11/18 12:57:45;;;;;;;18.85;4.57;;;20.20;55.30;;;;;;5044251;28;20044;-76
2021/11/18 13:00:13;;;;;;;17.67;4.68;;;20.30;55.40;;;;;;5055031;28;20052;-76